createdAt,value
2022-11-16T00:01:26.816Z,18.37
2022-11-16T00:04:00.225Z,19.60
2022-11-16T00:06:30.400Z,18.17
2022-11-16T00:09:18.829Z,18.60
2022-11-16T00:11:51.382Z,18.90
2022-11-16T00:14:22.710Z,18.37
2022-11-16T00:16:52.118Z,18.57
2022-11-16T00:19:21.109Z,18.07
2022-11-16T00:21:50.108Z,18.83
2022-11-16T00:24:21.087Z,19.03
2022-11-16T00:26:51.864Z,17.83
2022-11-16T00:29:22.499Z,18.67
2022-11-16T00:31:58.004Z,19.43
2022-11-16T00:34:27.265Z,18.97
2022-11-16T00:36:56.381Z,18.50
2022-11-16T00:39:25.478Z,17.77
2022-11-16T00:41:55.924Z,18.30
2022-11-16T00:44:24.680Z,18.50
2022-11-16T00:46:53.872Z,19.87
2022-11-16T00:49:23.196Z,18.23
2022-11-16T00:51:54.494Z,19.57
2022-11-16T00:54:24.025Z,19.03
2022-11-16T00:56:52.723Z,19.70
2022-11-16T00:59:22.711Z,19.30
2022-11-16T01:01:54.106Z,20.47
2022-11-16T01:04:22.571Z,21.03
2022-11-16T01:06:51.341Z,20.13
2022-11-16T01:09:20.247Z,19.87
2022-11-16T01:12:07.375Z,18.67
2022-11-16T01:14:38.121Z,19.57
2022-11-16T01:17:07.728Z,20.13
2022-11-16T01:19:37.002Z,19.33
2022-11-16T01:22:05.981Z,18.53
2022-11-16T01:24:34.909Z,20.13
2022-11-16T01:27:28.727Z,18.20
2022-11-16T01:30:03.474Z,18.90
2022-11-16T01:32:34.523Z,18.43
2022-11-16T01:35:10.481Z,16.97
2022-11-16T01:37:44.733Z,16.73
2022-11-16T01:40:17.361Z,18.17
2022-11-16T01:42:51.620Z,17.50
2022-11-16T01:45:35.476Z,18.73
2022-11-16T01:48:21.626Z,18.07
2022-11-16T01:50:58.406Z,19.53
2022-11-16T01:53:30.300Z,18.70
2022-11-16T01:56:16.736Z,18.70
2022-11-16T01:59:17.895Z,19.37
2022-11-16T02:01:52.056Z,19.10
2022-11-16T02:07:30.450Z,17.87
2022-11-16T02:10:12.194Z,18.17
2022-11-16T02:16:05.555Z,17.17
2022-11-16T02:18:54.642Z,17.80
2022-11-16T02:21:50.066Z,16.23
2022-11-16T02:24:53.332Z,17.50
2022-11-16T02:28:06.523Z,16.37
2022-11-16T02:30:43.367Z,15.07
2022-11-16T02:33:18.518Z,14.73
2022-11-16T02:35:52.333Z,14.37
2022-11-16T02:38:27.376Z,14.37
2022-11-16T02:41:03.153Z,13.20
2022-11-16T02:43:41.378Z,12.73
2022-11-16T02:46:18.047Z,12.23
2022-11-16T02:48:52.425Z,12.07
2022-11-16T02:51:24.101Z,12.67
2022-11-16T02:54:03.199Z,11.47
2022-11-16T02:56:53.097Z,11.23
2022-11-16T02:59:36.146Z,11.47
2022-11-16T03:02:17.013Z,10.87
2022-11-16T03:04:48.653Z,11.20
2022-11-16T03:07:21.789Z,11.83
2022-11-16T03:22:27.945Z,10.30
2022-11-16T03:25:38.273Z,11.47
2022-11-16T03:28:20.783Z,10.87
2022-11-16T03:31:02.958Z,11.00
2022-11-16T03:33:54.095Z,10.30
2022-11-16T03:36:30.263Z,9.90
2022-11-16T03:39:04.001Z,10.70
2022-11-16T03:41:43.604Z,11.00
2022-11-16T03:44:20.485Z,11.17
2022-11-16T03:47:01.016Z,11.03
2022-11-16T03:49:34.697Z,10.33
2022-11-16T03:52:14.404Z,10.60
2022-11-16T03:54:49.532Z,10.73
2022-11-16T03:57:21.948Z,10.40
2022-11-16T04:00:14.379Z,10.63
2022-11-16T04:07:22.906Z,11.27
2022-11-16T04:13:28.924Z,10.10
2022-11-16T04:16:31.296Z,9.93
2022-11-16T04:19:58.311Z,10.87
2022-11-16T04:23:03.483Z,9.27
2022-11-16T04:25:38.871Z,10.10
2022-11-16T04:28:14.948Z,9.47
2022-11-16T04:31:08.233Z,9.40
2022-11-16T04:33:57.659Z,9.23
2022-11-16T04:36:47.273Z,8.87
2022-11-16T04:39:18.498Z,9.10
2022-11-16T04:42:05.396Z,9.70
2022-11-16T04:44:50.386Z,8.90
2022-11-16T04:47:19.814Z,8.57
2022-11-16T04:49:49.565Z,8.93
2022-11-16T04:52:24.104Z,7.77
2022-11-16T04:54:56.437Z,9.47
2022-11-16T04:57:25.431Z,8.97
2022-11-16T04:59:54.167Z,9.90
2022-11-16T05:02:22.876Z,9.53
2022-11-16T05:04:58.944Z,9.57
2022-11-16T05:07:28.979Z,9.90
2022-11-16T05:10:08.499Z,9.60
2022-11-16T05:12:37.851Z,9.10
2022-11-16T05:15:09.723Z,8.73
2022-11-16T05:17:38.981Z,8.97
2022-11-16T05:20:31.084Z,9.20
2022-11-16T05:23:05.734Z,9.93
2022-11-16T05:25:42.464Z,7.97
2022-11-16T05:28:13.433Z,8.40
2022-11-16T05:30:46.404Z,8.37
2022-11-16T05:33:19.440Z,7.53
2022-11-16T05:35:50.985Z,7.60
2022-11-16T05:38:21.158Z,7.43
2022-11-16T05:40:55.197Z,7.87
2022-11-16T05:43:24.454Z,7.90
2022-11-16T05:46:16.725Z,8.87
2022-11-16T05:48:46.500Z,7.97
2022-11-16T05:51:15.162Z,7.80
2022-11-16T05:53:44.319Z,8.43
2022-11-16T05:56:18.706Z,8.73
2022-11-16T05:58:48.433Z,7.23
2022-11-16T06:01:17.471Z,8.60
2022-11-16T06:03:46.344Z,8.47
2022-11-16T06:06:17.778Z,9.40
2022-11-16T06:08:46.564Z,8.63
2022-11-16T06:11:21.918Z,9.33
2022-11-16T06:13:51.245Z,9.17
2022-11-16T06:16:20.528Z,9.50
2022-11-16T06:18:52.354Z,9.63
2022-11-16T06:21:22.761Z,9.70
2022-11-16T06:23:51.659Z,10.47
2022-11-16T06:26:22.455Z,10.43
2022-11-16T06:28:51.888Z,10.73
2022-11-16T06:31:22.971Z,10.63
2022-11-16T06:33:52.378Z,11.27
2022-11-16T06:36:25.999Z,11.57
2022-11-16T06:38:55.416Z,12.47
2022-11-16T06:41:27.022Z,11.80
2022-11-16T06:43:55.953Z,11.10
2022-11-16T06:46:34.162Z,11.63
2022-11-16T06:49:03.065Z,10.70
2022-11-16T06:51:32.200Z,12.20
2022-11-16T06:54:00.960Z,11.90
2022-11-16T06:56:31.645Z,11.17
2022-11-16T06:59:06.675Z,11.20
2022-11-16T07:01:36.675Z,9.60
2022-11-16T07:04:16.078Z,9.00
2022-11-16T07:06:51.480Z,8.10
2022-11-16T07:09:20.623Z,7.13
2022-11-16T07:11:51.196Z,5.90
2022-11-16T07:14:22.248Z,6.93
2022-11-16T07:16:54.974Z,6.67
2022-11-16T07:19:28.419Z,5.70
2022-11-16T07:21:57.007Z,5.43
2022-11-16T07:24:25.760Z,5.60
2022-11-16T07:26:55.959Z,5.03
2022-11-16T07:29:27.751Z,5.33
2022-11-16T07:32:12.252Z,5.37
2022-11-16T07:35:18.193Z,4.80
2022-11-16T07:37:47.090Z,5.30
2022-11-16T07:40:17.625Z,5.00
2022-11-16T07:42:49.496Z,4.30
2022-11-16T07:45:38.460Z,4.13
2022-11-16T07:48:09.581Z,4.40
2022-11-16T07:51:00.515Z,4.77
2022-11-16T07:53:30.920Z,5.77
2022-11-16T07:55:59.774Z,5.40
2022-11-16T07:58:34.026Z,5.23
2022-11-16T08:01:06.472Z,5.73
2022-11-16T08:03:37.875Z,5.80
2022-11-16T08:06:09.677Z,6.80
2022-11-16T08:08:38.259Z,6.87
2022-11-16T08:11:09.315Z,7.87
2022-11-16T08:13:41.435Z,7.77
2022-11-16T08:16:14.059Z,6.93
2022-11-16T08:18:44.322Z,7.50
2022-11-16T08:21:16.028Z,7.57
2022-11-16T08:23:46.551Z,7.53
2022-11-16T08:26:18.195Z,6.10
2022-11-16T08:28:53.975Z,8.20
2022-11-16T08:31:30.295Z,6.80
2022-11-16T08:34:08.965Z,7.07
2022-11-16T08:36:41.112Z,6.13
2022-11-16T08:39:10.467Z,5.87
2022-11-16T08:41:42.331Z,5.07
2022-11-16T08:44:15.599Z,5.30
2022-11-16T08:46:47.911Z,4.03
2022-11-16T08:49:23.246Z,4.40
2022-11-16T08:51:51.903Z,4.30
2022-11-16T08:54:24.477Z,4.13
2022-11-16T08:56:53.632Z,4.70
2022-11-16T08:59:23.861Z,4.20
2022-11-16T09:01:55.883Z,3.00
2022-11-16T09:04:24.660Z,3.43
2022-11-16T09:06:55.027Z,4.50
2022-11-16T09:09:24.046Z,3.10
2022-11-16T09:11:55.924Z,4.10
2022-11-16T09:14:29.104Z,3.30
2022-11-16T09:16:57.912Z,3.60
2022-11-16T09:19:26.941Z,2.90
2022-11-16T09:21:55.772Z,3.27
2022-11-16T09:24:24.980Z,3.53
2022-11-16T09:26:56.890Z,2.83
2022-11-16T09:29:27.974Z,3.07
2022-11-16T09:31:56.872Z,2.67
2022-11-16T09:34:26.025Z,3.77
2022-11-16T09:36:54.613Z,2.37
2022-11-16T09:39:31.711Z,2.50
2022-11-16T09:42:28.128Z,3.23
2022-11-16T09:45:08.583Z,3.07
2022-11-16T09:47:49.283Z,2.87
2022-11-16T09:50:28.197Z,3.20
2022-11-16T09:53:01.709Z,2.30
2022-11-16T09:55:36.369Z,2.83
2022-11-16T09:58:12.973Z,2.17
2022-11-16T10:00:49.209Z,2.90
2022-11-16T10:03:18.395Z,3.00
2022-11-16T10:06:03.086Z,2.70
2022-11-16T10:08:44.182Z,4.27
2022-11-16T10:11:40.426Z,3.33
2022-11-16T10:14:32.919Z,3.23
2022-11-16T10:17:08.838Z,2.70
2022-11-16T10:19:47.123Z,2.50
2022-11-16T10:22:31.703Z,2.17
2022-11-16T10:25:02.537Z,1.90
2022-11-16T10:27:43.061Z,1.87
2022-11-16T10:30:14.360Z,2.77
2022-11-16T10:32:51.603Z,2.07
2022-11-16T10:35:26.954Z,2.07
2022-11-16T10:37:59.175Z,1.80
2022-11-16T10:40:31.457Z,1.80
2022-11-16T10:43:07.484Z,1.87
2022-11-16T10:45:41.427Z,2.17
2022-11-16T10:48:24.372Z,1.93
2022-11-16T10:50:54.516Z,1.83
2022-11-16T10:53:33.867Z,1.70
2022-11-16T10:56:14.361Z,1.60
2022-11-16T10:58:58.428Z,2.00
2022-11-16T11:01:37.167Z,2.20
2022-11-16T11:04:22.134Z,1.67
2022-11-16T11:06:52.731Z,2.27
2022-11-16T11:09:28.200Z,1.93
2022-11-16T11:12:21.714Z,1.50
2022-11-16T11:15:02.860Z,2.17
2022-11-16T11:17:33.762Z,1.43
2022-11-16T11:20:07.327Z,2.43
2022-11-16T11:22:43.734Z,1.87
2022-11-16T11:25:21.908Z,1.90
2022-11-16T11:27:52.518Z,1.93
2022-11-16T11:30:22.525Z,1.93
2022-11-16T11:32:53.273Z,2.27
2022-11-16T11:35:29.403Z,1.60
2022-11-16T11:38:06.294Z,2.70
2022-11-16T11:40:36.356Z,1.70
2022-11-16T11:43:07.260Z,2.23
2022-11-16T11:45:46.253Z,1.60
2022-11-16T11:48:28.681Z,1.93
2022-11-16T11:51:02.517Z,2.70
2022-11-16T11:53:53.362Z,1.70
2022-11-16T11:56:26.356Z,2.00
2022-11-16T11:58:56.103Z,1.67
2022-11-16T12:01:55.558Z,2.03
2022-11-16T12:04:54.583Z,2.10
2022-11-16T12:07:40.425Z,1.70
2022-11-16T12:10:18.294Z,1.60
2022-11-16T12:12:57.424Z,1.20
2022-11-16T12:15:47.921Z,2.13
2022-11-16T12:18:37.656Z,1.37
2022-11-16T12:21:13.515Z,1.20
2022-11-16T12:27:48.212Z,1.60
2022-11-16T12:30:21.808Z,1.47
2022-11-16T12:33:06.020Z,1.60
2022-11-16T12:35:46.071Z,1.40
2022-11-16T12:38:28.878Z,1.90
2022-11-16T12:41:21.734Z,1.43
2022-11-16T12:44:13.130Z,1.57
2022-11-16T12:46:57.296Z,1.73
2022-11-16T12:49:46.886Z,2.37
2022-11-16T12:52:33.328Z,2.10
2022-11-16T12:55:27.323Z,2.30
2022-11-16T12:58:09.069Z,1.73
2022-11-16T13:00:51.002Z,2.37
2022-11-16T13:03:25.299Z,2.00
2022-11-16T13:05:59.378Z,1.30
2022-11-16T13:08:45.781Z,1.67
2022-11-16T13:11:20.307Z,2.10
2022-11-16T13:13:54.539Z,2.17
2022-11-16T13:16:25.667Z,1.93
2022-11-16T13:18:55.617Z,2.43
2022-11-16T13:21:35.427Z,1.30
2022-11-16T13:24:23.999Z,1.27
2022-11-16T13:27:13.991Z,1.90
2022-11-16T13:29:49.046Z,1.60
2022-11-16T13:32:24.533Z,1.47
2022-11-16T13:34:54.169Z,1.80
2022-11-16T13:37:49.375Z,1.90
2022-11-16T13:40:30.289Z,1.40
2022-11-16T13:43:08.547Z,1.80
2022-11-16T13:45:43.075Z,1.77
2022-11-16T13:48:20.264Z,1.70
2022-11-16T13:50:53.455Z,1.43
2022-11-16T13:56:20.914Z,2.37
2022-11-16T13:58:56.506Z,1.70
2022-11-16T14:01:26.830Z,1.37
2022-11-16T14:04:43.202Z,1.70
2022-11-16T14:07:32.078Z,1.50
2022-11-16T14:10:01.766Z,1.40
2022-11-16T14:12:58.838Z,1.67
2022-11-16T14:15:30.796Z,1.67
2022-11-16T14:18:37.476Z,1.53
2022-11-16T14:21:16.968Z,1.10
2022-11-16T14:24:16.744Z,1.73
2022-11-16T14:27:00.014Z,1.40
2022-11-16T14:29:40.679Z,1.20
2022-11-16T14:32:21.299Z,1.93
2022-11-16T14:34:54.493Z,1.60
2022-11-16T14:37:32.750Z,2.33
2022-11-16T14:40:06.201Z,1.77
2022-11-16T14:43:01.894Z,1.90
2022-11-16T14:45:38.772Z,2.23
2022-11-16T14:48:18.331Z,1.63
2022-11-16T14:51:01.197Z,2.13
2022-11-16T14:53:32.471Z,1.57
2022-11-16T14:56:11.221Z,1.50
2022-11-16T14:58:41.656Z,1.60
2022-11-16T15:01:16.260Z,1.47
2022-11-16T15:03:57.468Z,1.60
2022-11-16T15:06:28.579Z,1.03
2022-11-16T15:09:01.184Z,1.70
2022-11-16T15:11:47.575Z,1.53
2022-11-16T15:14:20.829Z,1.40
2022-11-16T15:16:51.884Z,2.00
2022-11-16T15:19:21.904Z,1.67
2022-11-16T15:21:57.876Z,1.43
2022-11-16T15:24:30.970Z,1.57
2022-11-16T15:27:11.911Z,1.73
2022-11-16T15:29:40.947Z,1.60
2022-11-16T15:32:17.353Z,1.37
2022-11-16T15:34:49.780Z,1.60
2022-11-16T15:37:28.704Z,0.97
2022-11-16T15:39:58.587Z,1.60
2022-11-16T15:42:29.931Z,1.63
2022-11-16T15:45:02.813Z,1.57
2022-11-16T15:47:32.382Z,2.33
2022-11-16T15:50:01.522Z,1.13
2022-11-16T15:52:45.202Z,1.53
2022-11-16T15:55:32.346Z,1.47
2022-11-16T15:58:04.436Z,2.20
2022-11-16T16:00:36.298Z,1.83
2022-11-16T16:03:09.074Z,2.10
2022-11-16T16:05:39.772Z,1.30
2022-11-16T16:08:30.546Z,1.37
2022-11-16T16:11:01.804Z,2.00
2022-11-16T16:13:33.916Z,1.87
2022-11-16T16:16:23.802Z,1.73
2022-11-16T16:18:54.541Z,2.23
2022-11-16T16:21:24.393Z,2.07
2022-11-16T16:23:56.143Z,2.47
2022-11-16T16:26:25.233Z,3.53
2022-11-16T16:28:57.027Z,3.70
2022-11-16T16:31:25.955Z,2.33
2022-11-16T16:33:56.105Z,3.53
2022-11-16T16:36:25.278Z,2.53
2022-11-16T16:38:56.965Z,2.00
2022-11-16T16:41:25.416Z,2.10
2022-11-16T16:43:54.843Z,1.77
2022-11-16T16:46:23.532Z,1.90
2022-11-16T16:48:53.246Z,1.97
2022-11-16T16:51:21.819Z,2.27
2022-11-16T16:53:57.002Z,1.67
2022-11-16T16:56:27.662Z,2.03
2022-11-16T16:58:56.812Z,2.13
2022-11-16T17:01:26.893Z,1.93
2022-11-16T17:03:55.674Z,1.60
2022-11-16T17:06:25.575Z,1.90
2022-11-16T17:08:54.745Z,1.60
2022-11-16T17:11:23.395Z,1.90
2022-11-16T17:13:53.454Z,2.00
2022-11-16T17:16:22.444Z,2.17
2022-11-16T17:18:55.656Z,1.77
2022-11-16T17:21:24.375Z,2.20
2022-11-16T17:23:53.281Z,1.80
2022-11-16T17:26:22.462Z,1.67
2022-11-16T17:28:56.071Z,1.97
2022-11-16T17:31:25.124Z,1.97
2022-11-16T17:33:54.234Z,1.83
2022-11-16T17:36:23.282Z,2.60
2022-11-16T17:38:52.351Z,2.27
2022-11-16T17:41:22.926Z,2.07
2022-11-16T17:43:54.634Z,2.60
2022-11-16T17:46:25.912Z,2.40
2022-11-16T17:48:55.312Z,2.17
2022-11-16T17:51:25.993Z,2.00
2022-11-16T17:53:54.936Z,1.90
2022-11-16T17:56:27.158Z,1.60
2022-11-16T17:58:58.626Z,2.60
2022-11-16T18:01:29.147Z,2.40
2022-11-16T18:03:58.701Z,2.13
2022-11-16T18:06:27.860Z,2.27
2022-11-16T18:08:56.645Z,2.67
2022-11-16T18:11:27.028Z,2.13
2022-11-16T18:13:59.171Z,2.23
2022-11-16T18:16:29.602Z,2.40
2022-11-16T18:19:00.155Z,2.40
2022-11-16T18:21:29.021Z,2.27
2022-11-16T18:24:00.409Z,2.20
2022-11-16T18:26:29.062Z,1.97
2022-11-16T18:28:59.379Z,2.43
2022-11-16T18:31:28.238Z,1.70
2022-11-16T18:33:57.147Z,1.73
2022-11-16T18:36:26.303Z,2.60
2022-11-16T18:38:54.997Z,2.07
2022-11-16T18:41:26.613Z,1.87
2022-11-16T18:43:57.188Z,1.50
2022-11-16T18:46:28.798Z,2.10
2022-11-16T18:48:58.082Z,2.17
2022-11-16T18:51:28.483Z,2.03
2022-11-16T18:53:57.389Z,1.90
2022-11-16T18:56:27.846Z,2.10
2022-11-16T18:58:56.986Z,1.97
2022-11-16T19:01:28.629Z,2.50
2022-11-16T19:03:58.080Z,2.17
2022-11-16T19:06:26.775Z,1.87
2022-11-16T19:08:59.607Z,2.70
2022-11-16T19:11:29.496Z,2.23
2022-11-16T19:14:03.865Z,1.80
2022-11-16T19:16:34.707Z,2.00
2022-11-16T19:19:04.099Z,2.30
2022-11-16T19:21:33.003Z,2.03
2022-11-16T19:24:02.827Z,2.00
2022-11-16T19:26:31.535Z,2.23
2022-11-16T19:29:01.688Z,2.13
2022-11-16T19:31:32.268Z,1.97
2022-11-16T19:34:04.581Z,2.30
2022-11-16T19:36:36.323Z,1.73
2022-11-16T19:39:06.014Z,2.33
2022-11-16T19:41:35.407Z,2.10
2022-11-16T19:44:04.004Z,2.20
2022-11-16T19:46:33.863Z,2.30
2022-11-16T19:49:04.227Z,2.20
2022-11-16T19:51:34.345Z,2.60
2022-11-16T19:54:03.793Z,2.47
2022-11-16T19:56:32.675Z,2.00
2022-11-16T19:59:01.715Z,2.30
2022-11-16T20:01:30.344Z,2.40
2022-11-16T20:04:01.042Z,2.97
2022-11-16T20:06:33.303Z,2.80
2022-11-16T20:09:08.924Z,2.90
2022-11-16T20:11:39.352Z,2.93
2022-11-16T20:14:09.731Z,3.37
2022-11-16T20:16:40.064Z,3.90
2022-11-16T20:19:10.257Z,3.40
2022-11-16T20:21:41.696Z,2.90
2022-11-16T20:24:13.134Z,2.97
2022-11-16T20:26:44.794Z,3.10
2022-11-16T20:29:14.211Z,3.63
2022-11-16T20:31:47.019Z,3.90
2022-11-16T20:34:18.596Z,3.50
2022-11-16T20:36:50.870Z,4.23
2022-11-16T20:39:21.151Z,3.83
2022-11-16T20:41:50.459Z,3.50
2022-11-16T20:44:22.362Z,3.30
2022-11-16T20:46:52.579Z,4.00
2022-11-16T20:49:22.029Z,3.83
2022-11-16T20:51:52.227Z,3.80
2022-11-16T20:54:21.449Z,3.40
2022-11-16T20:56:52.908Z,3.87
2022-11-16T20:59:21.886Z,3.53
2022-11-16T21:01:53.720Z,4.37
2022-11-16T21:04:23.406Z,3.90
2022-11-16T21:06:54.257Z,3.70
2022-11-16T21:09:25.860Z,4.30
2022-11-16T21:12:12.133Z,4.07
2022-11-16T21:14:40.940Z,4.30
2022-11-16T21:17:10.236Z,4.17
2022-11-16T21:19:38.738Z,3.70
2022-11-16T21:22:12.372Z,3.90
2022-11-16T21:24:41.088Z,4.67
2022-11-16T21:27:09.725Z,4.43
2022-11-16T21:29:38.458Z,3.60
2022-11-16T21:32:07.168Z,3.63
2022-11-16T21:34:39.948Z,4.07
2022-11-16T21:37:11.056Z,3.80
2022-11-16T21:39:39.727Z,3.50
2022-11-16T21:42:08.757Z,4.63
2022-11-16T21:44:43.608Z,3.80
2022-11-16T21:47:15.500Z,4.17
2022-11-16T21:50:08.700Z,3.90
2022-11-16T21:52:34.867Z,3.53
2022-11-16T21:55:03.669Z,3.50
2022-11-16T21:57:32.647Z,4.50
2022-11-16T22:00:02.364Z,4.20
2022-11-16T22:02:40.135Z,4.00
2022-11-16T22:05:27.521Z,3.93
2022-11-16T22:07:58.427Z,3.73
2022-11-16T22:10:27.037Z,3.53
2022-11-16T22:12:55.552Z,4.10
2022-11-16T22:15:24.116Z,4.43
2022-11-16T22:17:52.923Z,4.70
2022-11-16T22:20:22.823Z,4.43
2022-11-16T22:22:51.710Z,4.80
2022-11-16T22:25:22.124Z,4.53
2022-11-16T22:28:20.221Z,5.70
2022-11-16T22:30:40.137Z,5.60
2022-11-16T22:33:09.279Z,5.17
2022-11-16T22:35:38.747Z,4.93
2022-11-16T22:38:07.515Z,5.47
2022-11-16T22:40:37.761Z,6.00
2022-11-16T22:43:06.621Z,5.70
2022-11-16T22:45:35.489Z,5.97
2022-11-16T22:48:04.361Z,5.90
2022-11-16T22:50:33.612Z,6.70
2022-11-16T22:53:02.581Z,5.93
2022-11-16T22:55:31.366Z,6.27
2022-11-16T22:58:01.702Z,6.20
2022-11-16T23:00:31.009Z,6.40
2022-11-16T23:02:59.724Z,6.37
2022-11-16T23:05:28.681Z,7.03
2022-11-16T23:07:58.591Z,6.43
2022-11-16T23:10:27.382Z,6.33
2022-11-16T23:13:13.538Z,6.67
2022-11-16T23:15:52.610Z,6.97
2022-11-16T23:18:21.829Z,7.30
2022-11-16T23:21:08.035Z,6.50
2022-11-16T23:23:53.664Z,6.47
2022-11-16T23:26:42.693Z,5.57
2022-11-16T23:29:12.128Z,5.87
2022-11-16T23:31:42.452Z,5.57
2022-11-16T23:34:11.060Z,5.50
2022-11-16T23:36:39.674Z,5.93
2022-11-16T23:39:08.527Z,4.90
2022-11-16T23:41:54.465Z,4.87
2022-11-16T23:44:23.095Z,5.50
2022-11-16T23:46:53.086Z,4.53
2022-11-16T23:49:21.669Z,4.90
2022-11-16T23:51:50.039Z,4.50
2022-11-16T23:54:18.468Z,4.83
2022-11-16T23:56:47.001Z,4.30
2022-11-16T23:59:15.539Z,4.47
